Airfield :
LOGIN :

Register | Disclaimer

   EN    FR    IT 

 










Legend :    VFR   Marginal VFR   IFR   Intensive IFR   Very Intensive IFR
Visi :
Ceiling :
>= 8 km
>= 3000ft
5 to 8 km
1000 to 3000 ft
1500m to 5 km
500 to 1000 ft
800 to 1500m
200 to 500 ft
< 800m
< 200 ft
Symbols :   Thunderstorms  Fog  Heavy snow  Heavy precipitations  Wind > 20 kt
SIGMETs :     Misc.  Thunderstorms  Icing  Turbulence  Mountain Waves  Volcanic Ashes






- Airport Elevation : 239 ft
- IATA code : VRN


LIPX - Villafranca Int. Verona

CURRENT METAR :
  • 282150Z AUTO 03003KT 330V080 9999 RA OVC062/// 16/13 Q1021

EXPIRED METARs :
  • 282120Z AUTO 01007KT 9999 -RA OVC078/// 19/11 Q1021
  • 282050Z AUTO VRB04KT 9999 FEW034/// BKN099/// 17/11 Q1019
  • 282020Z AUTO 27010KT 230V300 9999 -RA FEW028/// OVC065/// 18/10 Q1020
  • 281950Z AUTO 32006KT 9999 OVC087/// 20/10 Q1019
  • 281920Z AUTO 32003KT 9999 BKN100/// BKN140/// 19/09 Q1019

TAF TAF LIPX
Valid from the 28 at 18:00 until the 29 at 03:00 UTC


281700Z 2818/2903 VRB05KT 9999 SCT030
TEMPO 2821/2903 TSRA



MET'MAP, your aeronautical weather chart ! - Copyright ORBIFLY December 2007 - Disclaimer

ORBIFLY MET'MAP TEAM :

Programming & Development : Alexandra Zaïnal
Concept & original design : Baudouin d'Aumeries
Assistance for programming : Marc-Olivier Méhu
Technical & hardware support : Manuel Goepfert

Contact : metmap@orbifly.com




SOURCES & CREDITS :

   NOAA